createdAt,value
2018-07-01T00:00:12.500Z,49.80
2018-07-01T00:05:09.545Z,49.40
2018-07-01T00:07:37.817Z,49.40
2018-07-01T00:10:07.027Z,49.00
2018-07-01T00:12:35.509Z,49.00
2018-07-01T00:15:04.142Z,49.10
2018-07-01T00:17:32.446Z,49.40
2018-07-01T00:20:00.747Z,49.50
2018-07-01T00:22:29.031Z,49.60
2018-07-01T00:24:57.331Z,49.30
2018-07-01T00:27:25.630Z,49.20
2018-07-01T00:29:53.910Z,48.90
2018-07-01T00:32:22.273Z,48.90
2018-07-01T00:34:50.541Z,48.80
2018-07-01T00:37:18.809Z,48.90
2018-07-01T00:39:47.119Z,48.90
2018-07-01T00:42:15.474Z,49.00
2018-07-01T00:44:43.762Z,49.00
2018-07-01T00:47:12.048Z,48.80
2018-07-01T00:52:08.360Z,49.00
2018-07-01T00:54:36.712Z,49.10
2018-07-01T00:57:05.112Z,49.10
2018-07-01T00:59:33.387Z,48.90
2018-07-01T01:02:01.672Z,49.20
2018-07-01T01:04:29.971Z,48.70
2018-07-01T01:06:58.261Z,48.60
2018-07-01T01:09:26.546Z,48.90
2018-07-01T01:11:55.068Z,48.80
2018-07-01T01:14:23.355Z,48.20
2018-07-01T01:16:51.651Z,48.00
2018-07-01T01:19:19.932Z,47.60
2018-07-01T01:21:48.214Z,47.60
2018-07-01T01:24:16.488Z,47.50
2018-07-01T01:26:44.760Z,47.60
2018-07-01T01:29:13.049Z,47.50
2018-07-01T01:34:09.355Z,48.00
2018-07-01T01:36:38.860Z,47.60
2018-07-01T01:39:11.284Z,47.40
2018-07-01T01:41:43.911Z,47.20
2018-07-01T01:44:21.726Z,47.40
2018-07-01T01:46:55.351Z,48.00
2018-07-01T01:49:29.262Z,47.80
2018-07-01T01:52:01.768Z,47.50
2018-07-01T01:54:35.476Z,46.90
2018-07-01T01:57:09.764Z,46.80
2018-07-01T01:59:43.700Z,46.50
2018-07-01T02:02:26.718Z,46.80
2018-07-01T02:05:59.852Z,47.40
2018-07-01T02:08:37.148Z,46.90
2018-07-01T02:11:05.478Z,47.20
2018-07-01T02:13:35.226Z,46.50
2018-07-01T02:18:35.111Z,46.60
2018-07-01T02:21:03.387Z,46.90
2018-07-01T02:23:38.784Z,47.20
2018-07-01T02:26:07.080Z,46.80
2018-07-01T02:28:35.397Z,46.60
2018-07-01T02:31:03.750Z,46.30
2018-07-01T02:33:32.007Z,46.00
2018-07-01T02:36:00.280Z,45.80
2018-07-01T02:38:28.560Z,45.90
2018-07-01T02:40:56.908Z,46.20
2018-07-01T02:43:25.196Z,46.50
2018-07-01T02:45:53.480Z,46.90
2018-07-01T02:48:21.748Z,46.40
2018-07-01T02:50:50.005Z,45.90
2018-07-01T02:53:18.316Z,46.20
2018-07-01T02:55:46.628Z,46.30
2018-07-01T02:58:14.940Z,46.60
2018-07-01T03:00:43.204Z,46.80
2018-07-01T03:03:11.478Z,46.30
2018-07-01T03:05:39.754Z,46.00
2018-07-01T03:08:08.574Z,45.20
2018-07-01T03:10:36.883Z,45.40
2018-07-01T03:13:05.162Z,45.70
2018-07-01T03:15:33.438Z,45.80
2018-07-01T03:20:29.728Z,45.50
2018-07-01T03:22:58.008Z,45.60
2018-07-01T03:25:26.288Z,45.70
2018-07-01T03:27:54.566Z,45.90
2018-07-01T03:30:22.848Z,46.20
2018-07-01T03:32:51.134Z,46.00
2018-07-01T03:35:19.426Z,45.60
2018-07-01T03:37:47.692Z,45.10
2018-07-01T03:40:15.950Z,45.20
2018-07-01T03:42:44.391Z,44.80
2018-07-01T03:45:12.758Z,44.80
2018-07-01T03:47:41.080Z,44.90
2018-07-01T03:50:09.584Z,46.00
2018-07-01T03:52:37.856Z,45.40
2018-07-01T03:55:06.436Z,45.30
2018-07-01T03:57:34.738Z,45.10
2018-07-01T04:00:03.016Z,45.10
2018-07-01T04:02:31.288Z,45.30
2018-07-01T04:04:59.557Z,45.70
2018-07-01T04:07:27.912Z,45.90
2018-07-01T04:09:56.186Z,45.80
2018-07-01T04:12:24.488Z,45.60
2018-07-01T04:14:52.782Z,45.80
2018-07-01T04:17:21.058Z,45.90
2018-07-01T04:19:49.338Z,46.10
2018-07-01T04:22:17.608Z,46.10
2018-07-01T04:24:45.905Z,45.80
2018-07-01T04:27:14.184Z,45.70
2018-07-01T04:29:42.464Z,45.80
2018-07-01T04:32:10.741Z,45.50
2018-07-01T04:34:39.004Z,45.00
2018-07-01T04:37:07.276Z,45.40
2018-07-01T04:39:35.558Z,45.20
2018-07-01T04:42:03.868Z,45.40
2018-07-01T04:44:32.240Z,45.50
2018-07-01T04:47:00.525Z,45.70
2018-07-01T04:49:28.819Z,45.80
2018-07-01T04:51:57.133Z,45.90
2018-07-01T04:54:25.620Z,46.00
2018-07-01T04:56:53.877Z,45.90
2018-07-01T04:59:22.153Z,45.90
2018-07-01T05:01:50.431Z,46.10
2018-07-01T05:04:18.694Z,46.10
2018-07-01T05:06:46.989Z,46.10
2018-07-01T05:09:15.275Z,46.00
2018-07-01T05:11:43.800Z,46.20
2018-07-01T05:14:12.286Z,46.20
2018-07-01T05:16:40.687Z,46.40
2018-07-01T05:19:09.516Z,46.20
2018-07-01T05:21:37.795Z,46.20
2018-07-01T05:24:06.069Z,46.00
2018-07-01T05:26:34.351Z,45.80
2018-07-01T05:29:02.619Z,45.40
2018-07-01T05:36:26.927Z,45.60
2018-07-01T05:38:55.318Z,45.90
2018-07-01T05:41:23.603Z,45.90
2018-07-01T05:43:51.874Z,45.80
2018-07-01T05:46:20.139Z,45.90
2018-07-01T05:48:48.425Z,46.10
2018-07-01T05:51:16.769Z,46.20
2018-07-01T05:53:45.105Z,46.40
2018-07-01T05:56:13.453Z,46.30
2018-07-01T05:58:41.727Z,46.10
2018-07-01T06:01:10.022Z,45.80
2018-07-01T06:03:38.313Z,46.00
2018-07-01T06:06:06.621Z,45.90
2018-07-01T06:08:34.924Z,46.20
2018-07-01T06:11:03.180Z,46.30
2018-07-01T06:13:31.451Z,46.40
2018-07-01T06:15:59.835Z,46.40
2018-07-01T06:18:28.112Z,46.50
2018-07-01T06:20:56.381Z,46.70
2018-07-01T06:23:24.655Z,46.90
2018-07-01T06:25:52.946Z,46.90
2018-07-01T06:28:21.241Z,46.70
2018-07-01T06:30:49.517Z,46.30
2018-07-01T06:33:17.798Z,46.60
2018-07-01T06:35:46.104Z,47.20
2018-07-01T06:38:14.399Z,47.00
2018-07-01T06:40:42.709Z,47.20
2018-07-01T06:45:39.357Z,47.10
2018-07-01T06:48:07.851Z,47.20
2018-07-01T06:50:36.146Z,46.90
2018-07-01T06:55:32.464Z,47.50
2018-07-01T06:58:00.782Z,47.10
2018-07-01T07:00:29.064Z,47.10
2018-07-01T07:02:57.631Z,47.30
2018-07-01T07:05:25.915Z,47.20
2018-07-01T07:07:54.224Z,47.50
2018-07-01T07:10:22.495Z,47.70
2018-07-01T07:12:50.815Z,47.10
2018-07-01T07:17:47.099Z,47.80
2018-07-01T07:20:15.393Z,47.70
2018-07-01T07:22:43.675Z,48.10
2018-07-01T07:25:11.957Z,48.10
2018-07-01T07:27:40.241Z,48.40
2018-07-01T07:30:08.617Z,47.70
2018-07-01T07:32:36.901Z,47.40
2018-07-01T07:35:05.595Z,47.30
2018-07-01T07:37:33.877Z,46.90
2018-07-01T07:40:02.182Z,46.90
2018-07-01T07:42:30.578Z,46.70
2018-07-01T07:44:58.876Z,46.90
2018-07-01T07:49:55.245Z,47.10
2018-07-01T07:52:23.652Z,47.10
2018-07-01T07:54:51.883Z,46.90
2018-07-01T07:57:20.165Z,47.10
2018-07-01T07:59:48.464Z,47.50
2018-07-01T08:02:16.728Z,47.80
2018-07-01T08:04:45.018Z,47.90
2018-07-01T08:07:13.429Z,47.60
2018-07-01T08:09:41.703Z,47.60
2018-07-01T08:12:09.995Z,47.60
2018-07-01T08:14:38.263Z,47.50
2018-07-01T08:17:06.558Z,47.40
2018-07-01T08:19:34.836Z,47.40
2018-07-01T08:22:03.140Z,47.60
2018-07-01T08:24:31.429Z,47.60
2018-07-01T08:29:27.723Z,48.00
2018-07-01T08:31:56.024Z,48.00
2018-07-01T08:34:24.307Z,48.20
2018-07-01T08:39:20.578Z,48.40
2018-07-01T08:42:34.825Z,48.40
2018-07-01T08:45:04.486Z,48.30
2018-07-01T08:47:33.529Z,48.70
2018-07-01T08:50:01.837Z,48.90
2018-07-01T08:52:30.118Z,49.10
2018-07-01T08:54:58.403Z,49.10
2018-07-01T08:57:26.718Z,49.10
2018-07-01T08:59:55.014Z,49.60
2018-07-01T09:02:23.327Z,48.60
2018-07-01T09:04:51.763Z,48.60
2018-07-01T09:07:20.539Z,48.80
2018-07-01T09:09:49.439Z,49.00
2018-07-01T09:12:17.756Z,48.90
2018-07-01T09:14:46.083Z,48.80
2018-07-01T09:17:14.368Z,48.60
2018-07-01T09:19:42.655Z,48.50
2018-07-01T09:22:10.942Z,49.00
2018-07-01T09:24:39.299Z,49.10
2018-07-01T09:27:07.609Z,49.10
2018-07-01T09:29:40.176Z,49.30
2018-07-01T09:32:08.472Z,49.30
2018-07-01T09:34:36.819Z,48.70
2018-07-01T09:37:05.100Z,49.40
2018-07-01T09:39:33.386Z,50.30
2018-07-01T09:42:01.773Z,49.20
2018-07-01T09:44:30.093Z,49.50
2018-07-01T09:46:58.393Z,49.90
2018-07-01T09:49:26.694Z,49.40
2018-07-01T09:51:55.009Z,49.60
2018-07-01T09:54:23.329Z,49.90
2018-07-01T09:56:51.691Z,50.20
2018-07-01T09:59:19.991Z,49.90
2018-07-01T10:01:48.307Z,49.80
2018-07-01T10:04:16.587Z,49.20
2018-07-01T10:06:44.887Z,49.80
2018-07-01T10:11:41.395Z,50.90
2018-07-01T10:14:10.009Z,50.20
2018-07-01T10:16:38.287Z,48.80
2018-07-01T10:19:06.628Z,47.80
2018-07-01T10:21:34.961Z,48.90
2018-07-01T10:24:03.267Z,51.10
2018-07-01T10:26:31.608Z,51.20
2018-07-01T10:29:15.985Z,50.30
2018-07-01T10:31:45.284Z,50.60
2018-07-01T10:34:14.377Z,50.90
2018-07-01T10:36:42.721Z,50.50
2018-07-01T10:39:12.705Z,50.80
2018-07-01T10:41:41.015Z,50.70
2018-07-01T10:44:09.309Z,50.90
2018-07-01T10:46:37.615Z,50.30
2018-07-01T10:49:06.035Z,50.30
2018-07-01T10:51:34.533Z,49.80
2018-07-01T10:54:02.936Z,50.40
2018-07-01T10:56:31.243Z,50.70
2018-07-01T11:01:27.608Z,49.80
2018-07-01T11:03:55.949Z,49.10
2018-07-01T11:06:24.400Z,47.70
2018-07-01T11:08:52.738Z,49.20
2018-07-01T11:11:21.040Z,51.00
2018-07-01T11:13:49.340Z,51.50
2018-07-01T11:16:17.633Z,51.20
2018-07-01T11:18:45.929Z,50.80
2018-07-01T11:21:14.348Z,50.50
2018-07-01T11:23:42.719Z,49.40
2018-07-01T11:26:11.043Z,48.80
2018-07-01T11:28:39.360Z,49.00
2018-07-01T11:31:07.684Z,49.20
2018-07-01T11:33:35.959Z,50.20
2018-07-01T11:36:04.329Z,49.70
2018-07-01T11:41:00.760Z,49.20
2018-07-01T11:43:29.048Z,49.60
2018-07-01T11:45:57.333Z,50.30
2018-07-01T11:48:25.726Z,51.10
2018-07-01T11:50:54.023Z,50.70
2018-07-01T11:55:50.317Z,50.80
2018-07-01T11:58:21.153Z,50.50
2018-07-01T12:00:49.449Z,50.50
2018-07-01T12:03:17.772Z,51.30
2018-07-01T12:05:46.050Z,51.50
2018-07-01T12:08:14.323Z,50.90
2018-07-01T12:10:42.642Z,50.50
2018-07-01T12:15:38.983Z,50.80
2018-07-01T12:18:07.286Z,51.30
2018-07-01T12:20:35.597Z,50.70
2018-07-01T12:23:04.043Z,50.20
2018-07-01T12:32:56.397Z,51.60
2018-07-01T12:35:24.698Z,51.90
2018-07-01T12:37:53.101Z,52.00
2018-07-01T12:40:21.398Z,51.60
2018-07-01T12:42:49.673Z,51.30
2018-07-01T12:45:17.953Z,50.90
2018-07-01T12:47:46.310Z,51.50
2018-07-01T12:50:14.545Z,51.50
2018-07-01T12:52:42.838Z,50.60
2018-07-01T12:55:11.137Z,50.30
2018-07-01T12:57:39.440Z,50.40
2018-07-01T13:00:08.267Z,50.10
2018-07-01T13:02:36.627Z,51.10
2018-07-01T13:05:04.957Z,50.80
2018-07-01T13:07:33.258Z,51.30
2018-07-01T13:10:01.552Z,51.30
2018-07-01T13:12:29.842Z,50.80
2018-07-01T13:14:58.218Z,50.50
2018-07-01T13:17:26.511Z,50.60
2018-07-01T13:19:54.827Z,50.30
2018-07-01T13:22:23.155Z,50.70
2018-07-01T13:24:51.451Z,50.60
2018-07-01T13:27:19.756Z,50.80
2018-07-01T13:29:48.064Z,50.20
2018-07-01T13:32:16.347Z,51.10
2018-07-01T13:34:44.693Z,51.20
2018-07-01T13:37:12.962Z,51.00
2018-07-01T13:39:41.225Z,50.70
2018-07-01T13:42:09.535Z,50.20
2018-07-01T13:44:37.835Z,49.60
2018-07-01T13:47:06.122Z,49.60
2018-07-01T13:49:34.391Z,50.10
2018-07-01T13:52:02.714Z,49.90
2018-07-01T13:54:31.001Z,50.50
2018-07-01T13:56:59.604Z,49.40
2018-07-01T13:59:27.761Z,49.00
2018-07-01T14:01:56.042Z,49.60
2018-07-01T14:04:24.333Z,50.00
2018-07-01T14:09:20.650Z,50.30
2018-07-01T14:11:48.951Z,51.00
2018-07-01T14:14:17.243Z,50.80
2018-07-01T14:16:45.527Z,50.50
2018-07-01T14:19:13.848Z,49.90
2018-07-01T14:21:42.140Z,49.90
2018-07-01T14:24:10.437Z,50.20
2018-07-01T14:26:38.729Z,50.40
2018-07-01T14:29:07.026Z,51.10
2018-07-01T14:31:35.322Z,49.60
2018-07-01T14:34:03.618Z,49.40
2018-07-01T14:36:31.938Z,50.80
2018-07-01T14:39:00.228Z,50.20
2018-07-01T14:41:28.520Z,50.00
2018-07-01T14:43:56.814Z,49.80
2018-07-01T14:46:25.116Z,48.90
2018-07-01T14:48:53.404Z,49.80
2018-07-01T14:51:21.740Z,49.70
2018-07-01T14:53:50.040Z,49.60
2018-07-01T14:56:18.360Z,49.00
2018-07-01T14:58:46.674Z,49.10
2018-07-01T15:01:14.989Z,49.10
2018-07-01T15:03:43.240Z,49.70
2018-07-01T15:06:11.520Z,49.80
2018-07-01T15:08:39.841Z,50.40
2018-07-01T15:11:08.375Z,50.70
2018-07-01T15:13:36.612Z,50.00
2018-07-01T15:16:04.897Z,48.80
2018-07-01T15:18:33.260Z,49.90
2018-07-01T15:21:01.645Z,50.90
2018-07-01T15:25:57.964Z,49.40
2018-07-01T15:28:27.016Z,48.80
2018-07-01T15:30:55.521Z,48.60
2018-07-01T15:33:24.116Z,49.40
2018-07-01T15:35:53.201Z,50.10
2018-07-01T15:38:21.504Z,50.90
2018-07-01T15:40:49.834Z,49.70
2018-07-01T15:43:18.146Z,49.60
2018-07-01T15:48:14.462Z,49.40
2018-07-01T15:50:42.730Z,49.90
2018-07-01T15:53:11.060Z,50.60
2018-07-01T15:55:39.351Z,49.90
2018-07-01T15:58:07.674Z,50.40
2018-07-01T16:03:03.966Z,49.70
2018-07-01T16:05:32.259Z,50.00
2018-07-01T16:08:00.548Z,50.00
2018-07-01T16:10:28.858Z,50.00
2018-07-01T16:12:57.152Z,50.20
2018-07-01T16:15:25.447Z,50.40
2018-07-01T16:17:53.802Z,50.30
2018-07-01T16:20:22.062Z,49.90
2018-07-01T16:22:50.415Z,50.00
2018-07-01T16:25:25.004Z,50.10
2018-07-01T16:27:58.745Z,50.40
2018-07-01T16:30:27.032Z,50.60
2018-07-01T16:32:55.306Z,51.00
2018-07-01T16:35:23.596Z,51.30
2018-07-01T16:37:51.923Z,51.10
2018-07-01T16:40:20.224Z,50.10
2018-07-01T16:42:48.522Z,47.30
2018-07-01T16:47:44.860Z,44.40
2018-07-01T16:50:13.175Z,44.40
2018-07-01T16:52:41.493Z,44.40
2018-07-01T16:55:09.803Z,43.70
2018-07-01T16:57:38.099Z,44.30
2018-07-01T17:00:07.241Z,44.20
2018-07-01T17:02:35.520Z,43.40
2018-07-01T17:05:04.124Z,43.20
2018-07-01T17:10:00.393Z,41.40
2018-07-01T17:12:28.689Z,40.90
2018-07-01T17:14:57.287Z,42.80
2018-07-01T17:17:25.681Z,44.00
2018-07-01T17:19:53.984Z,43.90
2018-07-01T17:22:22.376Z,43.80
2018-07-01T17:24:50.599Z,44.60
2018-07-01T17:27:18.913Z,43.40
2018-07-01T17:29:47.227Z,43.60
2018-07-01T17:32:20.859Z,43.40
2018-07-01T17:34:49.172Z,43.20
2018-07-01T17:37:17.463Z,43.10
2018-07-01T17:39:45.793Z,43.00
2018-07-01T17:42:14.092Z,41.90
2018-07-01T17:44:42.399Z,42.50
2018-07-01T17:47:10.770Z,43.20
2018-07-01T17:52:07.203Z,42.00
2018-07-01T17:54:35.503Z,42.70
2018-07-01T17:57:03.811Z,42.00
2018-07-01T17:59:32.151Z,42.10
2018-07-01T18:02:00.497Z,42.20
2018-07-01T18:04:28.773Z,43.00
2018-07-01T18:06:57.057Z,42.80
2018-07-01T18:09:25.552Z,42.30
2018-07-01T18:11:53.877Z,42.70
2018-07-01T18:14:22.213Z,43.70
2018-07-01T18:16:50.500Z,43.90
2018-07-01T18:19:18.810Z,43.70
2018-07-01T18:22:04.613Z,43.30
2018-07-01T18:24:42.855Z,43.20
2018-07-01T18:26:43.813Z,44.00
2018-07-01T18:29:16.773Z,43.90
2018-07-01T18:31:40.457Z,44.00
2018-07-01T18:34:08.675Z,44.30
2018-07-01T18:36:36.972Z,44.00
2018-07-01T18:39:07.425Z,44.60
2018-07-01T18:41:35.716Z,43.70
2018-07-01T18:44:03.991Z,43.10
2018-07-01T18:46:32.454Z,43.00
2018-07-01T18:49:00.805Z,43.10
2018-07-01T18:51:29.099Z,43.50
2018-07-01T18:53:57.378Z,43.20
2018-07-01T18:56:25.782Z,43.00
2018-07-01T18:58:54.144Z,42.40
2018-07-01T19:01:22.468Z,41.50
2018-07-01T19:03:50.797Z,41.50
2018-07-01T19:06:19.183Z,41.40
2018-07-01T19:08:47.545Z,41.50
2018-07-01T19:11:15.839Z,41.60
2018-07-01T19:13:44.141Z,42.50
2018-07-01T19:18:40.517Z,42.80
2018-07-01T19:21:09.424Z,43.70
2018-07-01T19:23:38.298Z,44.40
2018-07-01T19:26:07.152Z,45.20
2018-07-01T19:28:35.469Z,45.20
2018-07-01T19:31:03.733Z,45.40
2018-07-01T19:33:32.037Z,45.40
2018-07-01T19:36:00.361Z,45.70
2018-07-01T19:38:28.695Z,45.90
2018-07-01T19:40:57.082Z,45.90
2018-07-01T19:45:53.478Z,44.70
2018-07-01T19:48:21.831Z,44.30
2018-07-01T19:50:50.194Z,44.40
2018-07-01T19:53:18.514Z,44.80
2018-07-01T19:55:46.926Z,45.10
2018-07-01T19:58:15.208Z,45.50
2018-07-01T20:00:43.591Z,45.60
2018-07-01T20:05:39.966Z,46.00
2018-07-01T20:08:08.405Z,46.20
2018-07-01T20:10:36.702Z,46.30
2018-07-01T20:13:05.180Z,46.40
2018-07-01T20:15:33.488Z,46.60
2018-07-01T20:18:02.440Z,46.80
2018-07-01T20:20:30.751Z,46.30
2018-07-01T20:22:59.088Z,45.40
2018-07-01T20:25:27.419Z,44.90
2018-07-01T20:27:55.722Z,44.90
2018-07-01T20:30:24.010Z,45.00
2018-07-01T20:32:52.326Z,44.60
2018-07-01T20:35:20.646Z,44.50
2018-07-01T20:37:48.944Z,44.70
2018-07-01T20:40:17.282Z,44.00
2018-07-01T20:42:45.557Z,43.60
2018-07-01T20:45:13.848Z,43.70
2018-07-01T20:47:42.142Z,43.60
2018-07-01T20:50:10.436Z,43.80
2018-07-01T20:52:38.738Z,44.10
2018-07-01T20:55:07.050Z,44.80
2018-07-01T20:57:35.360Z,44.30
2018-07-01T21:00:03.795Z,44.40
2018-07-01T21:02:32.109Z,44.60
2018-07-01T21:05:00.438Z,44.90
2018-07-01T21:07:28.714Z,45.10
2018-07-01T21:09:57.005Z,45.30
2018-07-01T21:12:25.316Z,44.80
2018-07-01T21:14:53.610Z,44.50
2018-07-01T21:17:21.904Z,44.30
2018-07-01T21:19:50.196Z,43.90
2018-07-01T21:22:18.606Z,44.30
2018-07-01T21:24:46.876Z,44.30
2018-07-01T21:27:15.184Z,44.60
2018-07-01T21:29:43.504Z,45.00
2018-07-01T21:32:11.823Z,44.70
2018-07-01T21:34:40.092Z,45.00
2018-07-01T21:37:08.378Z,45.40
2018-07-01T21:39:36.684Z,45.40
2018-07-01T21:42:04.975Z,45.70
2018-07-01T21:44:33.346Z,45.40
2018-07-01T21:49:29.670Z,44.80
2018-07-01T21:51:58.052Z,44.70
2018-07-01T21:54:26.350Z,44.80
2018-07-01T21:56:54.678Z,44.70
2018-07-01T21:59:22.964Z,44.80
2018-07-01T22:01:51.258Z,44.60
2018-07-01T22:06:52.825Z,44.90
2018-07-01T22:09:21.088Z,45.40
2018-07-01T22:12:01.445Z,45.60
2018-07-01T22:14:31.910Z,45.10
2018-07-01T22:17:00.696Z,44.60
2018-07-01T22:21:57.727Z,44.70
2018-07-01T22:24:27.155Z,44.70
2018-07-01T22:26:55.444Z,44.90
2018-07-01T22:29:23.720Z,44.80
2018-07-01T22:31:52.025Z,44.80
2018-07-01T22:36:49.292Z,45.30
2018-07-01T22:39:18.998Z,45.40
2018-07-01T22:41:47.796Z,45.20
2018-07-01T22:44:16.092Z,45.20
2018-07-01T22:46:45.076Z,44.50
2018-07-01T22:49:13.377Z,44.50
2018-07-01T22:51:41.730Z,44.50
2018-07-01T22:54:10.041Z,44.70
2018-07-01T22:56:38.369Z,44.60
2018-07-01T22:59:06.648Z,44.50
2018-07-01T23:01:35.184Z,44.30
2018-07-01T23:04:03.521Z,44.40
2018-07-01T23:06:31.792Z,44.80
2018-07-01T23:09:00.132Z,44.60
2018-07-01T23:11:28.413Z,44.60
2018-07-01T23:13:56.683Z,44.60
2018-07-01T23:16:24.980Z,44.50
2018-07-01T23:18:53.273Z,44.80
2018-07-01T23:21:21.554Z,45.10
2018-07-01T23:23:49.877Z,44.40
2018-07-01T23:26:18.144Z,44.10
2018-07-01T23:28:46.451Z,44.10
2018-07-01T23:31:14.721Z,44.00
2018-07-01T23:33:43.003Z,44.20
2018-07-01T23:36:11.297Z,43.80
2018-07-01T23:38:39.591Z,44.10
2018-07-01T23:41:07.893Z,44.10
2018-07-01T23:43:36.247Z,44.40
2018-07-01T23:46:04.569Z,44.30
2018-07-01T23:48:32.875Z,44.30
2018-07-01T23:51:01.153Z,44.20
2018-07-01T23:53:29.433Z,44.30
2018-07-01T23:58:25.729Z,44.40
